Time;durP1;ratioP1;P1;durP2;ratioP2;P2;SDS_P1;SDS_P2;PMS_P1;PMS_P2;Temp;Humidity;BMP_temperature;BMP_pressure;BME280_temperature;BME280_humidity;BME280_pressure;Samples;Min_cycle;Max_cycle;Signal;HPM_P1;HPM_P2
2023/09/30 00:01:03;;;;;;;7.27;6.57;;;14.50;99.90;;;;;;5073975;28;20623;-76
2023/09/30 00:03:28;;;;;;;8.30;7.23;;;14.50;99.90;;;;;;5075019;28;20682;-75
2023/09/30 00:05:55;;;;;;;7.77;6.93;;;14.50;99.90;;;;;;5075107;28;20171;-78
2023/09/30 00:08:21;;;;;;;7.63;6.97;;;14.50;99.90;;;;;;5091557;28;20177;-79
2023/09/30 00:10:47;;;;;;;8.10;6.87;;;14.40;99.90;;;;;;5075098;28;20167;-76
2023/09/30 00:13:13;;;;;;;7.30;6.70;;;14.40;99.90;;;;;;5055641;28;20207;-79
2023/09/30 00:15:44;;;;;;;7.50;6.80;;;14.40;99.90;;;;;;5077668;28;20224;-77
2023/09/30 00:18:09;;;;;;;9.10;6.77;;;14.30;99.90;;;;;;5076991;28;20217;-75
2023/09/30 00:20:35;;;;;;;7.60;6.90;;;14.30;99.90;;;;;;5074068;28;20266;-76
2023/09/30 00:23:01;;;;;;;7.17;6.43;;;14.30;99.90;;;;;;5088531;28;20266;-75
2023/09/30 00:25:28;;;;;;;7.87;7.17;;;14.30;99.90;;;;;;5066628;28;20180;-77
2023/09/30 00:27:53;;;;;;;7.97;7.07;;;14.30;99.90;;;;;;5074192;28;20199;-77
2023/09/30 00:30:19;;;;;;;7.33;6.60;;;14.30;99.90;;;;;;5075184;28;20253;-76
2023/09/30 00:32:46;;;;;;;7.33;6.73;;;14.30;99.90;;;;;;5081589;28;20171;-76
2023/09/30 00:35:12;;;;;;;8.73;6.70;;;13.40;99.90;;;;;;5080956;28;20686;-78
2023/09/30 00:37:39;;;;;;;7.03;6.33;;;14.40;99.90;;;;;;5056459;28;20202;-76
2023/09/30 00:40:06;;;;;;;7.57;6.87;;;14.40;99.90;;;;;;5074074;28;20199;-76
2023/09/30 00:42:31;;;;;;;6.57;6.07;;;14.40;99.90;;;;;;5073569;28;20254;-77
2023/09/30 00:44:57;;;;;;;8.53;6.73;;;14.40;99.90;;;;;;5055434;28;20204;-78
2023/09/30 00:47:23;;;;;;;7.20;6.60;;;14.40;99.90;;;;;;5072918;28;20171;-77
2023/09/30 00:49:53;;;;;;;7.50;6.80;;;14.50;99.90;;;;;;5073433;28;20691;-76
2023/09/30 00:52:19;;;;;;;7.13;6.43;;;14.40;99.90;;;;;;5073735;28;20164;-79
2023/09/30 00:54:47;;;;;;;7.60;6.47;;;14.40;99.90;;;;;;5073272;28;20231;-78
2023/09/30 00:57:13;;;;;;;6.80;6.10;;;14.40;99.90;;;;;;5073532;28;20640;-77
2023/09/30 00:59:40;;;;;;;7.80;7.00;;;14.40;99.90;;;;;;5073335;28;20623;-79
2023/09/30 01:02:07;;;;;;;7.90;7.10;;;14.40;99.90;;;;;;5073206;28;20707;-77
2023/09/30 01:04:33;;;;;;;6.40;5.80;;;14.40;99.90;;;;;;5056837;28;20271;-77
2023/09/30 01:06:59;;;;;;;7.40;6.70;;;14.50;99.90;;;;;;5076729;28;20171;-76
2023/09/30 01:09:25;;;;;;;7.17;6.47;;;14.40;99.90;;;;;;5078577;28;20684;-76
2023/09/30 01:11:51;;;;;;;7.30;6.57;;;14.40;99.90;;;;;;5092361;28;20188;-76
2023/09/30 01:14:40;;;;;;;6.90;6.30;;;14.40;99.90;;;;;;5077057;28;20179;-78
2023/09/30 01:17:09;;;;;;;8.03;7.23;;;14.40;99.90;;;;;;5073335;28;20172;-78
2023/09/30 01:19:35;;;;;;;6.90;6.30;;;14.40;99.90;;;;;;5073545;28;20174;-77
2023/09/30 01:22:05;;;;;;;7.87;7.27;;;14.40;99.90;;;;;;5073359;28;20534;-78
2023/09/30 01:24:38;;;;;;;7.63;6.90;;;14.40;99.90;;;;;;5075439;28;20164;-79
2023/09/30 01:27:04;;;;;;;8.03;6.50;;;14.40;99.90;;;;;;5077404;28;20164;-78
2023/09/30 01:29:29;;;;;;;10.93;6.40;;;14.30;99.90;;;;;;5077218;28;20187;-76
2023/09/30 01:31:55;;;;;;;7.00;6.40;;;14.30;99.90;;;;;;5099225;28;20201;-76
2023/09/30 01:34:21;;;;;;;7.23;6.43;;;14.30;99.90;;;;;;5093287;28;20206;-77
2023/09/30 01:36:47;;;;;;;7.77;6.97;;;14.30;99.90;;;;;;5077844;28;20710;-78
2023/09/30 01:39:13;;;;;;;9.20;6.80;;;14.30;99.90;;;;;;5076577;28;20173;-77
2023/09/30 01:41:40;;;;;;;8.60;7.23;;;14.30;99.90;;;;;;5078529;28;20184;-78
2023/09/30 01:44:07;;;;;;;7.70;6.97;;;14.30;99.90;;;;;;5084691;28;20171;-76
2023/09/30 01:46:33;;;;;;;7.50;6.70;;;14.30;99.90;;;;;;5062880;28;20184;-75
2023/09/30 01:48:59;;;;;;;7.83;7.00;;;14.30;99.90;;;;;;5076201;28;20604;-77
2023/09/30 01:51:24;;;;;;;7.53;6.77;;;14.30;99.90;;;;;;5079048;28;20415;-76
2023/09/30 01:53:50;;;;;;;8.60;7.00;;;14.30;99.90;;;;;;5081687;28;20184;-77
2023/09/30 01:56:16;;;;;;;7.53;6.83;;;14.30;99.90;;;;;;5076141;28;20202;-76
2023/09/30 01:58:43;;;;;;;7.53;6.70;;;14.30;99.90;;;;;;5058247;28;20598;-77
2023/09/30 02:01:09;;;;;;;10.07;6.67;;;14.30;99.90;;;;;;5075909;28;20250;-77
2023/09/30 02:03:34;;;;;;;8.33;7.07;;;14.30;99.90;;;;;;5078827;28;20683;-78
2023/09/30 02:06:00;;;;;;;6.60;5.90;;;14.30;99.90;;;;;;5086494;28;20186;-78
2023/09/30 02:08:29;;;;;;;6.90;6.37;;;14.30;99.90;;;;;;5076055;28;20171;-77
2023/09/30 02:10:55;;;;;;;7.67;6.87;;;14.30;99.90;;;;;;5076075;28;20194;-77
2023/09/30 02:13:20;;;;;;;7.33;6.63;;;14.20;99.90;;;;;;5076571;28;20545;-76
2023/09/30 02:15:46;;;;;;;7.47;6.57;;;14.20;99.90;;;;;;5075981;28;20226;-77
2023/09/30 02:18:12;;;;;;;8.50;7.00;;;14.20;99.90;;;;;;5075902;28;20171;-76
2023/09/30 02:20:39;;;;;;;7.97;6.13;;;14.20;99.90;;;;;;5079314;28;20171;-77
2023/09/30 02:23:06;;;;;;;7.63;6.93;;;14.20;99.90;;;;;;5077254;28;20267;-75
2023/09/30 02:25:33;;;;;;;7.00;6.50;;;14.10;99.90;;;;;;5076394;28;20179;-76
2023/09/30 02:27:59;;;;;;;7.23;6.53;;;14.10;99.90;;;;;;5076565;28;20172;-77
2023/09/30 02:30:27;;;;;;;7.97;7.13;;;14.10;99.90;;;;;;5075708;28;20238;-77
2023/09/30 02:32:53;;;;;;;7.37;6.67;;;14.10;99.90;;;;;;5056381;28;20530;-77
2023/09/30 02:35:20;;;;;;;7.37;6.67;;;14.10;99.90;;;;;;5073011;28;20214;-77
2023/09/30 02:37:46;;;;;;;7.30;6.67;;;14.10;99.90;;;;;;5075946;28;20168;-77
2023/09/30 02:40:14;;;;;;;7.37;6.67;;;14.10;99.90;;;;;;5076049;28;20178;-76
2023/09/30 02:42:41;;;;;;;8.37;7.50;;;14.10;99.90;;;;;;5075371;28;20175;-77
2023/09/30 02:45:08;;;;;;;9.00;8.20;;;14.10;99.90;;;;;;5084715;28;20171;-76
2023/09/30 02:47:34;;;;;;;10.53;8.20;;;14.00;99.90;;;;;;5063400;28;20178;-77
2023/09/30 02:50:00;;;;;;;8.83;7.93;;;14.10;99.90;;;;;;5056338;28;20262;-77
2023/09/30 02:52:27;;;;;;;10.33;8.20;;;14.10;99.90;;;;;;5074575;28;20167;-75
2023/09/30 02:54:53;;;;;;;9.87;7.90;;;14.10;99.90;;;;;;5074648;28;20237;-77
2023/09/30 02:57:19;;;;;;;11.07;7.93;;;14.20;99.90;;;;;;5074498;28;20171;-76
2023/09/30 02:59:45;;;;;;;9.67;8.20;;;14.20;99.90;;;;;;5074514;28;20176;-77
2023/09/30 03:02:11;;;;;;;9.50;8.50;;;14.20;99.90;;;;;;5077060;28;20226;-76
2023/09/30 03:04:37;;;;;;;9.43;8.43;;;14.30;99.90;;;;;;5074737;28;20179;-76
2023/09/30 03:07:03;;;;;;;10.50;8.73;;;14.20;99.90;;;;;;5078961;28;20610;-76
2023/09/30 03:09:29;;;;;;;9.83;8.83;;;14.20;99.90;;;;;;5084608;28;20174;-75
2023/09/30 03:11:59;;;;;;;11.93;8.10;;;14.30;99.90;;;;;;5089447;28;20178;-76
2023/09/30 03:14:25;;;;;;;9.17;8.17;;;14.30;99.90;;;;;;5077096;28;20194;-76
2023/09/30 03:16:51;;;;;;;9.37;8.47;;;14.30;99.90;;;;;;5058166;28;20214;-78
2023/09/30 03:19:17;;;;;;;11.27;8.43;;;14.30;99.90;;;;;;5074190;28;20175;-77
2023/09/30 03:21:43;;;;;;;9.23;8.33;;;14.30;99.90;;;;;;5078875;28;20275;-77
2023/09/30 03:24:09;;;;;;;10.33;9.33;;;14.30;99.90;;;;;;5080330;28;20164;-77
2023/09/30 03:26:35;;;;;;;9.17;8.17;;;14.30;99.90;;;;;;5087907;28;20187;-76
2023/09/30 03:29:03;;;;;;;8.83;8.03;;;14.20;99.90;;;;;;5075829;28;20211;-79
2023/09/30 03:31:29;;;;;;;9.00;8.13;;;14.30;99.90;;;;;;5074551;28;20179;-77
2023/09/30 03:33:55;;;;;;;9.07;8.17;;;14.30;99.90;;;;;;5074960;28;20186;-76
2023/09/30 03:36:24;;;;;;;10.43;8.77;;;14.30;99.90;;;;;;5052219;28;20210;-76
2023/09/30 03:38:56;;;;;;;8.97;8.07;;;14.30;99.90;;;;;;5059026;28;20620;-78
2023/09/30 03:41:22;;;;;;;10.90;8.07;;;14.30;99.90;;;;;;5057120;28;20203;-77
2023/09/30 03:43:49;;;;;;;10.00;8.70;;;14.30;99.90;;;;;;5054250;28;20214;-77
2023/09/30 03:46:15;;;;;;;8.67;7.90;;;14.30;99.90;;;;;;5053897;28;20168;-76
2023/09/30 03:48:42;;;;;;;10.40;8.20;;;14.30;99.90;;;;;;5053894;28;20199;-76
2023/09/30 03:51:15;;;;;;;8.67;7.80;;;14.30;99.90;;;;;;5054036;28;20218;-77
2023/09/30 03:53:44;;;;;;;11.80;8.37;;;14.30;99.90;;;;;;5055999;28;20155;-78
2023/09/30 03:56:13;;;;;;;10.07;8.47;;;14.30;99.90;;;;;;5064564;28;20205;-78
2023/09/30 03:58:41;;;;;;;9.67;8.63;;;14.30;99.90;;;;;;5055709;28;20171;-76
2023/09/30 04:01:07;;;;;;;9.27;8.30;;;14.30;99.90;;;;;;5054374;28;20215;-75
2023/09/30 04:03:34;;;;;;;11.43;8.90;;;14.30;99.90;;;;;;5036206;28;20176;-76
2023/09/30 04:06:02;;;;;;;9.47;8.43;;;14.30;99.90;;;;;;5053822;28;20170;-77
2023/09/30 04:08:29;;;;;;;8.90;8.10;;;14.30;99.90;;;;;;5054280;28;20178;-76
2023/09/30 04:10:54;;;;;;;10.60;8.70;;;14.30;99.90;;;;;;5054854;28;20173;-79
2023/09/30 04:13:21;;;;;;;11.87;8.60;;;14.30;99.90;;;;;;5039448;28;20226;-79
2023/09/30 04:15:49;;;;;;;9.57;8.67;;;14.40;99.90;;;;;;5056256;28;20200;-75
2023/09/30 04:18:15;;;;;;;10.10;8.43;;;14.40;99.90;;;;;;5056612;28;20165;-76
2023/09/30 04:20:41;;;;;;;8.83;8.00;;;14.40;99.90;;;;;;5038142;28;20259;-78
2023/09/30 04:23:10;;;;;;;10.00;8.80;;;14.40;99.90;;;;;;5054040;28;20173;-77
2023/09/30 04:25:36;;;;;;;9.00;8.10;;;14.40;99.90;;;;;;5053604;28;20194;-76
2023/09/30 04:28:02;;;;;;;9.83;8.83;;;14.40;99.90;;;;;;5053743;28;20207;-78
2023/09/30 04:30:29;;;;;;;11.40;8.40;;;14.50;99.90;;;;;;5054082;28;21009;-79
2023/09/30 04:32:56;;;;;;;9.57;8.20;;;14.50;99.90;;;;;;5054141;28;20164;-77
2023/09/30 04:35:26;;;;;;;10.67;8.93;;;14.60;99.90;;;;;;5053856;28;20257;-77
2023/09/30 04:37:52;;;;;;;9.33;8.30;;;14.60;99.90;;;;;;5053915;28;20244;-76
2023/09/30 04:40:21;;;;;;;10.17;8.17;;;14.60;99.90;;;;;;5054177;28;20522;-76
2023/09/30 04:42:48;;;;;;;9.63;8.73;;;14.60;99.90;;;;;;5054369;28;20165;-76
2023/09/30 04:45:19;;;;;;;9.27;8.20;;;14.50;99.90;;;;;;5062174;28;20168;-75
2023/09/30 04:47:45;;;;;;;9.53;8.63;;;14.60;99.90;;;;;;5061427;28;20519;-76
2023/09/30 04:50:13;;;;;;;9.30;8.43;;;14.60;99.90;;;;;;5036162;28;20271;-76
2023/09/30 04:52:40;;;;;;;9.43;8.53;;;14.60;99.90;;;;;;5053876;28;20183;-76
2023/09/30 04:55:06;;;;;;;8.83;7.90;;;14.60;99.90;;;;;;5036659;28;20285;-77
2023/09/30 04:57:32;;;;;;;10.80;8.67;;;14.70;99.90;;;;;;5060770;28;20559;-77
2023/09/30 04:59:58;;;;;;;9.60;8.47;;;14.60;99.90;;;;;;5046794;28;20267;-78
2023/09/30 05:02:25;;;;;;;9.17;8.27;;;14.60;99.90;;;;;;5058880;28;20784;-75
2023/09/30 05:04:52;;;;;;;9.33;8.43;;;14.70;99.90;;;;;;5066328;28;20168;-76
2023/09/30 05:07:18;;;;;;;8.83;7.93;;;14.50;99.90;;;;;;5066489;28;20176;-76
2023/09/30 05:09:44;;;;;;;9.67;8.67;;;14.70;99.90;;;;;;5059319;28;20177;-75
2023/09/30 05:12:11;;;;;;;9.90;7.63;;;14.60;99.90;;;;;;5051444;28;20241;-77
2023/09/30 05:14:38;;;;;;;8.50;7.70;;;14.70;99.90;;;;;;5076056;28;20166;-77
2023/09/30 05:17:05;;;;;;;10.27;9.27;;;14.70;99.90;;;;;;5071614;28;20172;-76
2023/09/30 05:19:32;;;;;;;8.73;7.87;;;14.70;99.90;;;;;;5062733;28;20256;-77
2023/09/30 05:21:58;;;;;;;9.50;8.60;;;14.60;99.90;;;;;;5058518;28;20221;-76
2023/09/30 05:24:24;;;;;;;10.70;9.13;;;14.70;99.90;;;;;;5039988;28;20180;-76
2023/09/30 05:26:50;;;;;;;8.73;7.90;;;14.70;99.90;;;;;;5056792;28;20171;-76
2023/09/30 05:29:16;;;;;;;9.37;8.47;;;14.70;99.90;;;;;;5057191;28;20182;-76
2023/09/30 05:31:42;;;;;;;9.07;7.67;;;14.70;99.90;;;;;;5056704;28;20179;-76
2023/09/30 05:34:10;;;;;;;7.70;6.90;;;14.70;99.90;;;;;;5056903;28;20256;-76
2023/09/30 05:36:36;;;;;;;8.00;7.27;;;14.80;99.90;;;;;;5056179;28;20841;-77
2023/09/30 05:39:03;;;;;;;10.27;7.30;;;14.90;99.90;;;;;;5057151;28;20195;-76
2023/09/30 05:41:29;;;;;;;9.60;7.53;;;15.00;99.90;;;;;;5056550;28;20173;-78
2023/09/30 05:43:55;;;;;;;7.83;7.13;;;15.00;99.90;;;;;;5056545;28;20261;-76
2023/09/30 05:46:21;;;;;;;8.10;6.60;;;15.10;99.90;;;;;;5056651;28;20181;-75
2023/09/30 05:48:47;;;;;;;7.07;6.37;;;15.20;99.90;;;;;;5056780;28;20180;-76
2023/09/30 05:51:15;;;;;;;7.40;6.63;;;15.40;99.90;;;;;;5056960;28;20662;-75
2023/09/30 05:53:42;;;;;;;6.77;6.17;;;15.50;99.90;;;;;;5039036;28;20184;-77
2023/09/30 05:56:11;;;;;;;5.97;5.37;;;15.50;99.90;;;;;;5056833;28;20551;-75
2023/09/30 05:58:37;;;;;;;6.27;5.67;;;15.60;99.90;;;;;;5056538;28;20299;-77
2023/09/30 06:01:10;;;;;;;5.80;5.33;;;15.80;99.90;;;;;;5057744;28;20566;-77
2023/09/30 06:03:40;;;;;;;5.57;5.10;;;15.90;99.90;;;;;;5060409;28;20198;-77
2023/09/30 06:06:18;;;;;;;6.13;5.53;;;16.00;99.90;;;;;;5059938;28;20186;-75
2023/09/30 06:08:46;;;;;;;5.63;5.10;;;16.10;99.90;;;;;;5056419;28;20160;-77
2023/09/30 06:11:19;;;;;;;6.70;5.23;;;16.20;99.90;;;;;;5056213;28;20226;-79
2023/09/30 06:13:47;;;;;;;6.40;5.50;;;16.30;99.90;;;;;;5056101;28;20615;-77
2023/09/30 06:16:13;;;;;;;7.00;5.10;;;16.40;99.90;;;;;;5055840;28;20249;-77
2023/09/30 06:18:39;;;;;;;5.80;5.10;;;16.50;99.90;;;;;;5056187;28;20651;-77
2023/09/30 06:21:06;;;;;;;6.70;5.30;;;16.50;99.90;;;;;;5055555;28;20182;-78
2023/09/30 06:23:32;;;;;;;6.27;5.60;;;16.60;99.90;;;;;;5058279;28;20179;-77
2023/09/30 06:26:02;;;;;;;6.03;5.37;;;16.60;99.90;;;;;;5039098;28;20190;-76
2023/09/30 06:28:31;;;;;;;5.97;5.23;;;16.70;99.90;;;;;;5055281;28;20169;-78
2023/09/30 06:30:57;;;;;;;7.40;5.50;;;16.70;99.90;;;;;;5057191;28;20175;-76
2023/09/30 06:33:23;;;;;;;6.40;5.80;;;16.80;99.90;;;;;;5064168;28;20182;-77
2023/09/30 06:35:52;;;;;;;8.23;6.40;;;16.80;99.90;;;;;;5073484;28;20200;-79
2023/09/30 06:38:21;;;;;;;6.57;5.60;;;16.80;99.90;;;;;;5064689;28;20198;-77
2023/09/30 06:40:48;;;;;;;9.07;6.40;;;16.90;99.90;;;;;;5057135;28;20563;-76
2023/09/30 06:43:17;;;;;;;6.13;5.50;;;16.80;99.90;;;;;;5055841;28;20199;-76
2023/09/30 06:45:46;;;;;;;9.33;6.50;;;16.80;99.90;;;;;;5055532;28;20208;-75
2023/09/30 06:48:12;;;;;;;11.03;6.70;;;16.90;99.90;;;;;;5064459;28;20178;-79
2023/09/30 06:50:46;;;;;;;8.73;6.50;;;16.90;99.90;;;;;;5057849;28;20181;-76
2023/09/30 06:53:11;;;;;;;6.67;5.90;;;16.90;99.90;;;;;;5055354;28;20175;-77
2023/09/30 06:55:39;;;;;;;8.60;6.07;;;17.00;99.90;;;;;;5054888;28;20701;-77
2023/09/30 06:58:07;;;;;;;7.30;6.47;;;17.00;99.90;;;;;;5055327;28;20651;-76
2023/09/30 07:00:34;;;;;;;9.10;6.40;;;17.10;99.90;;;;;;5057920;28;20259;-77
2023/09/30 07:03:01;;;;;;;10.47;6.70;;;17.20;99.90;;;;;;5062751;28;20237;-76
2023/09/30 07:05:28;;;;;;;6.83;5.67;;;17.30;99.90;;;;;;5051511;28;20179;-79
2023/09/30 07:07:54;;;;;;;8.80;6.27;;;17.30;99.90;;;;;;5057044;28;20184;-77
2023/09/30 07:10:19;;;;;;;8.73;6.23;;;17.40;99.90;;;;;;5065041;28;20187;-78
2023/09/30 07:12:45;;;;;;;6.77;6.07;;;17.50;99.90;;;;;;5060949;28;20172;-76
2023/09/30 07:15:11;;;;;;;8.67;6.30;;;17.60;99.90;;;;;;5061543;28;20248;-75
2023/09/30 07:17:37;;;;;;;7.27;6.03;;;17.60;99.90;;;;;;5071013;28;20175;-76
2023/09/30 07:20:04;;;;;;;8.93;5.87;;;17.70;99.90;;;;;;5072190;28;20176;-76
2023/09/30 07:22:31;;;;;;;8.27;6.80;;;17.70;99.90;;;;;;5064811;28;20176;-77
2023/09/30 07:24:57;;;;;;;8.20;7.10;;;17.80;99.90;;;;;;5047032;28;20176;-78
2023/09/30 07:27:24;;;;;;;8.10;7.17;;;17.80;99.90;;;;;;5068443;28;20266;-75
2023/09/30 07:29:50;;;;;;;7.93;6.03;;;17.90;99.90;;;;;;5060454;28;20163;-78
2023/09/30 07:32:16;;;;;;;10.57;7.53;;;18.00;99.90;;;;;;5055066;28;20180;-76
2023/09/30 07:34:42;;;;;;;8.80;6.97;;;18.00;99.90;;;;;;5054927;28;20179;-77
2023/09/30 07:37:08;;;;;;;8.97;6.50;;;18.00;99.90;;;;;;5055123;28;20180;-78
2023/09/30 07:39:35;;;;;;;8.00;6.67;;;18.10;99.90;;;;;;5054152;28;20259;-74
2023/09/30 07:42:01;;;;;;;9.63;7.10;;;18.10;99.90;;;;;;5036256;28;20196;-77
2023/09/30 07:44:27;;;;;;;8.80;6.73;;;18.10;99.90;;;;;;5054608;28;20168;-75
2023/09/30 07:46:53;;;;;;;9.63;7.03;;;18.20;99.90;;;;;;5020136;28;20246;-79
2023/09/30 07:49:19;;;;;;;11.90;8.90;;;18.20;99.90;;;;;;5054799;28;20213;-77
2023/09/30 07:51:46;;;;;;;14.47;9.73;;;18.30;99.90;;;;;;5054219;28;20176;-78
2023/09/30 07:54:12;;;;;;;9.67;7.27;;;18.50;99.90;;;;;;5053622;28;20341;-77
2023/09/30 07:56:38;;;;;;;11.40;7.13;;;18.50;99.90;;;;;;5053488;28;20220;-79
2023/09/30 07:59:05;;;;;;;10.53;7.03;;;18.40;99.90;;;;;;5055080;28;20172;-78
2023/09/30 08:01:31;;;;;;;7.37;6.67;;;18.50;99.90;;;;;;5061455;28;20231;-79
2023/09/30 08:03:57;;;;;;;12.20;7.50;;;18.50;99.90;;;;;;5056300;28;20179;-77
2023/09/30 08:06:23;;;;;;;10.47;7.70;;;18.60;99.90;;;;;;5036102;28;20180;-78
2023/09/30 08:08:49;;;;;;;9.20;8.13;;;18.60;99.90;;;;;;5054591;28;20175;-77
2023/09/30 08:11:17;;;;;;;7.87;7.10;;;18.60;99.90;;;;;;5053713;28;20654;-77
2023/09/30 08:13:43;;;;;;;8.93;6.90;;;18.60;99.90;;;;;;5060462;28;20172;-75
2023/09/30 08:16:08;;;;;;;9.77;7.43;;;18.60;99.90;;;;;;5036942;28;20270;-75
2023/09/30 08:18:34;;;;;;;10.30;7.50;;;18.60;99.90;;;;;;5053799;28;20503;-76
2023/09/30 08:21:00;;;;;;;8.13;7.27;;;18.70;99.90;;;;;;5060954;28;20190;-77
2023/09/30 08:23:26;;;;;;;10.73;7.43;;;18.80;99.90;;;;;;5059183;28;20179;-75
2023/09/30 08:25:52;;;;;;;9.27;7.63;;;18.80;99.90;;;;;;5054414;28;20662;-76
2023/09/30 08:28:18;;;;;;;11.20;7.53;;;18.70;99.90;;;;;;5054395;28;20233;-78
2023/09/30 08:30:44;;;;;;;7.50;6.73;;;18.70;99.90;;;;;;5054532;28;20646;-76
2023/09/30 08:33:10;;;;;;;7.67;6.87;;;18.80;99.90;;;;;;5053929;28;20168;-78
2023/09/30 08:35:39;;;;;;;10.87;7.20;;;18.80;99.90;;;;;;5057749;28;20207;-76
2023/09/30 08:38:05;;;;;;;9.50;7.87;;;18.70;99.90;;;;;;5058034;28;20190;-75
2023/09/30 08:40:31;;;;;;;11.03;8.60;;;18.80;99.90;;;;;;5058895;28;20535;-76
2023/09/30 08:42:57;;;;;;;8.60;7.07;;;18.90;99.90;;;;;;5039188;28;20180;-76
2023/09/30 08:45:24;;;;;;;8.53;7.37;;;18.90;99.90;;;;;;5057514;28;20633;-75
2023/09/30 08:47:50;;;;;;;8.70;7.33;;;18.90;99.90;;;;;;5057270;28;20191;-76
2023/09/30 08:50:17;;;;;;;10.10;7.30;;;19.10;99.90;;;;;;5057568;28;20648;-76
2023/09/30 08:52:44;;;;;;;12.43;7.70;;;19.10;99.90;;;;;;5039576;28;20249;-77
2023/09/30 08:55:12;;;;;;;9.63;8.63;;;19.20;99.90;;;;;;5062201;28;20196;-76
2023/09/30 08:57:42;;;;;;;9.33;7.67;;;19.30;99.90;;;;;;5071805;28;20172;-77
2023/09/30 09:00:14;;;;;;;8.40;7.47;;;19.30;99.90;;;;;;5066118;28;20229;-76
2023/09/30 09:02:40;;;;;;;8.73;7.17;;;19.40;99.90;;;;;;5058235;28;20311;-76
2023/09/30 09:05:07;;;;;;;10.57;7.20;;;19.40;99.90;;;;;;5057693;28;20172;-75
2023/09/30 09:07:34;;;;;;;9.57;7.20;;;19.50;99.90;;;;;;5057357;28;20176;-76
2023/09/30 09:10:08;;;;;;;9.40;7.20;;;19.50;99.90;;;;;;5059146;28;20533;-76
2023/09/30 09:12:36;;;;;;;9.13;6.80;;;19.40;99.90;;;;;;5058379;28;20183;-79
2023/09/30 09:15:05;;;;;;;8.17;7.37;;;19.30;99.90;;;;;;5076387;28;20250;-76
2023/09/30 09:17:45;;;;;;;8.43;7.57;;;19.30;99.90;;;;;;5075807;28;20263;-76
2023/09/30 09:20:19;;;;;;;13.40;7.60;;;19.30;99.90;;;;;;5075614;28;20604;-75
2023/09/30 09:22:47;;;;;;;8.37;7.20;;;19.30;99.90;;;;;;5075685;28;20245;-79
2023/09/30 09:25:13;;;;;;;9.27;6.80;;;19.40;99.90;;;;;;5057752;28;20175;-76
2023/09/30 09:27:39;;;;;;;10.13;8.43;;;19.50;99.90;;;;;;5075375;28;20233;-77
2023/09/30 09:30:18;;;;;;;11.73;8.07;;;19.70;99.90;;;;;;5077745;28;20643;-77
2023/09/30 09:33:07;;;;;;;9.07;7.07;;;19.80;99.90;;;;;;5074533;28;20258;-77
2023/09/30 09:35:35;;;;;;;9.53;6.50;;;20.00;99.90;;;;;;5056577;28;20561;-77
2023/09/30 09:38:04;;;;;;;8.07;7.03;;;20.00;99.90;;;;;;5077595;28;20182;-77
2023/09/30 09:40:33;;;;;;;7.70;6.80;;;20.00;99.90;;;;;;5082086;28;20672;-78
2023/09/30 09:43:00;;;;;;;10.73;7.03;;;20.00;99.90;;;;;;5075455;28;20166;-77
2023/09/30 09:45:27;;;;;;;8.63;6.90;;;20.00;99.90;;;;;;5073040;28;20228;-77
2023/09/30 09:47:54;;;;;;;8.00;7.03;;;19.90;99.90;;;;;;5078411;28;20170;-75
2023/09/30 09:50:21;;;;;;;7.57;6.97;;;19.80;99.90;;;;;;5080965;28;20171;-77
2023/09/30 09:52:53;;;;;;;12.83;10.43;;;19.70;99.90;;;;;;5079463;28;20170;-75
2023/09/30 09:55:21;;;;;;;7.70;6.87;;;19.60;99.90;;;;;;5084988;28;20568;-77
2023/09/30 09:57:49;;;;;;;7.57;6.60;;;19.50;99.90;;;;;;5079451;28;20626;-78
2023/09/30 10:00:24;;;;;;;14.20;11.97;;;19.40;99.90;;;;;;5058221;28;20222;-79
2023/09/30 10:02:51;;;;;;;9.93;7.33;;;19.40;99.90;;;;;;5008955;28;1931008;-77
2023/09/30 10:05:19;;;;;;;7.27;6.57;;;19.40;99.90;;;;;;5075892;28;20207;-77
2023/09/30 10:07:53;;;;;;;8.20;6.30;;;19.40;99.90;;;;;;5076420;28;20499;-75
2023/09/30 10:10:21;;;;;;;10.20;7.13;;;19.40;99.90;;;;;;5060503;28;20213;-76
2023/09/30 10:12:47;;;;;;;8.83;6.80;;;19.40;99.90;;;;;;5076286;28;20171;-78
2023/09/30 10:15:25;;;;;;;7.23;6.50;;;19.40;99.90;;;;;;5075327;28;20225;-79
2023/09/30 10:18:03;;;;;;;8.83;7.20;;;19.40;99.90;;;;;;5075961;28;20254;-79
2023/09/30 10:20:37;;;;;;;9.53;6.60;;;19.40;99.90;;;;;;5076247;28;20202;-76
2023/09/30 10:23:18;;;;;;;7.53;6.57;;;19.50;99.90;;;;;;5082539;28;20179;-76
2023/09/30 10:25:49;;;;;;;10.87;9.33;;;19.50;99.90;;;;;;5076279;28;20171;-78
2023/09/30 10:28:38;;;;;;;10.70;8.03;;;19.60;99.90;;;;;;5057943;28;20645;-77
2023/09/30 10:31:19;;;;;;;12.53;8.20;;;19.60;99.90;;;;;;5075691;28;20170;-78
2023/09/30 10:34:20;;;;;;;8.30;6.90;;;19.70;99.90;;;;;;5075787;28;20162;-80
2023/09/30 10:36:47;;;;;;;9.97;6.87;;;19.70;99.90;;;;;;5058519;28;20588;-77
2023/09/30 10:39:14;;;;;;;8.47;6.53;;;19.90;99.90;;;;;;5075703;28;20509;-76
2023/09/30 10:41:40;;;;;;;7.43;6.67;;;19.90;99.90;;;;;;5075199;28;20175;-79
2023/09/30 10:44:29;;;;;;;7.53;6.57;;;20.00;99.90;;;;;;5057147;28;20195;-76
2023/09/30 10:46:57;;;;;;;6.47;5.87;;;20.00;99.90;;;;;;5074585;28;20265;-77
2023/09/30 10:49:23;;;;;;;7.13;6.33;;;20.20;99.90;;;;;;5087659;28;20179;-75
2023/09/30 10:51:53;;;;;;;6.90;6.20;;;20.20;99.90;;;;;;5095586;28;20239;-77
2023/09/30 10:54:23;;;;;;;7.00;6.03;;;20.20;99.90;;;;;;5081263;28;20658;-77
2023/09/30 10:56:49;;;;;;;6.83;5.90;;;20.30;99.90;;;;;;5074001;28;20203;-77
2023/09/30 10:59:25;;;;;;;6.43;5.83;;;20.50;99.90;;;;;;5074785;28;20206;-76
2023/09/30 11:01:53;;;;;;;8.07;6.47;;;20.50;99.90;;;;;;5075682;28;20694;-78
2023/09/30 11:04:19;;;;;;;6.83;5.87;;;20.50;99.90;;;;;;5078565;28;20175;-78
2023/09/30 11:06:46;;;;;;;7.40;6.30;;;20.60;99.90;;;;;;5083802;28;20609;-77
2023/09/30 11:09:20;;;;;;;8.87;6.60;;;20.60;99.90;;;;;;5081922;28;20519;-77
2023/09/30 11:11:53;;;;;;;8.40;6.80;;;20.70;99.90;;;;;;5074423;28;20183;-76
2023/09/30 11:14:30;;;;;;;8.33;7.07;;;20.80;99.90;;;;;;5074734;28;20155;-77
2023/09/30 11:17:06;;;;;;;8.40;6.30;;;20.90;99.90;;;;;;5085728;28;20195;-78
2023/09/30 11:19:59;;;;;;;6.83;6.13;;;20.90;99.90;;;;;;5056617;28;20259;-77
2023/09/30 11:22:25;;;;;;;7.03;6.00;;;20.90;99.90;;;;;;5070967;28;20187;-77
2023/09/30 11:24:51;;;;;;;6.57;5.63;;;21.00;99.90;;;;;;5056582;28;20622;-75
2023/09/30 11:27:26;;;;;;;8.37;5.93;;;21.00;99.90;;;;;;5077883;28;20208;-78
2023/09/30 11:29:52;;;;;;;9.00;7.70;;;21.10;99.90;;;;;;5079701;28;20175;-77
2023/09/30 11:32:28;;;;;;;9.83;7.70;;;21.10;99.90;;;;;;5082314;28;20171;-78
2023/09/30 11:34:55;;;;;;;9.03;6.37;;;21.20;99.90;;;;;;5080961;28;20175;-77
2023/09/30 11:37:24;;;;;;;7.57;6.23;;;21.40;99.90;;;;;;5077615;28;20178;-75
2023/09/30 11:39:50;;;;;;;7.10;6.03;;;21.40;99.90;;;;;;5057193;28;20620;-78
2023/09/30 11:42:17;;;;;;;7.10;5.90;;;21.50;99.90;;;;;;5074452;28;20250;-76
2023/09/30 11:44:50;;;;;;;7.57;5.63;;;21.60;99.90;;;;;;5083253;28;20179;-76
2023/09/30 11:47:16;;;;;;;7.80;6.07;;;21.60;99.90;;;;;;5075751;28;20221;-77
2023/09/30 11:49:48;;;;;;;6.50;5.73;;;21.40;99.90;;;;;;5073854;28;20657;-78
2023/09/30 11:52:17;;;;;;;8.07;6.23;;;21.50;99.90;;;;;;5074029;28;20155;-77
2023/09/30 11:54:44;;;;;;;6.57;5.63;;;21.50;99.90;;;;;;5074336;28;20255;-78
2023/09/30 11:57:14;;;;;;;6.73;6.10;;;21.70;99.90;;;;;;5077772;28;20736;-77
2023/09/30 11:59:41;;;;;;;6.20;5.60;;;21.80;99.90;;;;;;5069546;28;20190;-76
2023/09/30 12:02:11;;;;;;;8.47;6.03;;;21.90;99.90;;;;;;5077524;28;20214;-75
2023/09/30 12:04:37;;;;;;;7.83;5.67;;;22.00;99.90;;;;;;5049578;28;20598;-77
2023/09/30 12:07:04;;;;;;;8.07;6.40;;;22.20;99.90;;;;;;5074256;28;20175;-76
2023/09/30 12:09:31;;;;;;;8.60;5.87;;;22.30;99.90;;;;;;5074699;28;20254;-79
2023/09/30 12:11:57;;;;;;;7.47;6.05;;;22.50;99.90;;;;;;5077332;28;20163;-76
2023/09/30 12:14:24;;;;;;;7.00;6.30;;;22.60;99.90;;;;;;5077584;28;20580;-77
2023/09/30 12:16:50;;;;;;;9.15;6.15;;;22.70;99.90;;;;;;5074082;28;20236;-80
2023/09/30 12:19:20;;;;;;;6.80;5.68;;;22.90;99.90;;;;;;5074344;28;20167;-79
2023/09/30 12:21:47;;;;;;;7.72;5.90;;;23.00;99.90;;;;;;5073861;28;20183;-83
2023/09/30 12:24:19;;;;;;;7.82;6.32;;;23.00;99.90;;;;;;5074345;28;20500;-81
2023/09/30 12:26:48;;;;;;;7.18;5.97;;;23.10;99.90;;;;;;5074088;28;20152;-78
2023/09/30 12:29:21;;;;;;;7.68;5.93;;;23.10;99.90;;;;;;5055843;28;20171;-78
2023/09/30 12:31:49;;;;;;;6.65;6.00;;;22.90;99.90;;;;;;5074011;28;20160;-76
2023/09/30 12:34:15;;;;;;;7.55;6.13;;;22.70;99.90;;;;;;5073820;28;20168;-76
2023/09/30 12:36:41;;;;;;;7.18;6.05;;;22.60;99.90;;;;;;5074030;28;20205;-77
2023/09/30 12:39:12;;;;;;;6.93;6.18;;;22.70;99.90;;;;;;5074292;28;20167;-78
2023/09/30 12:41:40;;;;;;;11.45;6.70;;;22.50;99.90;;;;;;5080830;28;20159;-76
2023/09/30 12:44:06;;;;;;;8.95;6.55;;;22.50;99.90;;;;;;5076361;28;20195;-76
2023/09/30 12:46:36;;;;;;;7.35;5.50;;;22.50;99.90;;;;;;5057911;28;20266;-76
2023/09/30 12:49:03;;;;;;;6.53;5.80;;;22.60;99.90;;;;;;5074804;28;20171;-81